Time;durP1;ratioP1;P1;durP2;ratioP2;P2;SDS_P1;SDS_P2;PMS_P1;PMS_P2;Temp;Humidity;BMP_temperature;BMP_pressure;BME280_temperature;BME280_humidity;BME280_pressure;Samples;Min_cycle;Max_cycle;Signal;HPM_P1;HPM_P2
2022/05/17 00:00:00;;;;;;;8.30;3.40;;;;;;;;;;4909128;29;20154;-81
2022/05/17 00:02:26;;;;;;;9.18;3.60;;;;;;;;;;4910508;29;20036;-83
2022/05/17 00:04:53;;;;;;;8.60;3.63;;;;;;;;;;4921610;29;20405;-80
2022/05/17 00:07:19;;;;;;;6.28;3.30;;;;;;;;;;4934304;29;20544;-78
2022/05/17 00:09:45;;;;;;;8.48;3.67;;;;;;;;;;4908201;29;20447;-87
2022/05/17 00:12:12;;;;;;;7.50;3.50;;;;;;;;;;4909575;29;20032;-81
2022/05/17 00:14:38;;;;;;;5.88;3.15;;;;;;;;;;4927600;29;20074;-86
2022/05/17 00:17:04;;;;;;;6.55;3.55;;;;;;;;;;4917740;29;20048;-78
2022/05/17 00:19:30;;;;;;;6.35;3.33;;;;;;;;;;4918383;29;20067;-84
2022/05/17 00:21:56;;;;;;;7.05;3.42;;;;;;;;;;4926568;29;20099;-79
2022/05/17 00:24:25;;;;;;;7.25;3.47;;;;;;;;;;4918205;29;20047;-78
2022/05/17 00:26:52;;;;;;;6.55;3.00;;;;;;;;;;4907182;29;20032;-84
2022/05/17 00:29:18;;;;;;;7.35;3.47;;;;;;;;;;4898847;29;20262;-81
2022/05/17 00:31:44;;;;;;;6.45;3.03;;;;;;;;;;4923881;29;20035;-84
2022/05/17 00:34:10;;;;;;;8.07;3.60;;;;;;;;;;4923349;29;20119;-85
2022/05/17 00:36:37;;;;;;;6.13;3.40;;;;;;;;;;4928098;29;20028;-75
2022/05/17 00:39:03;;;;;;;8.30;3.40;;;;;;;;;;4921187;29;20160;-77
2022/05/17 00:41:30;;;;;;;8.88;3.50;;;;;;;;;;4922636;29;20474;-80
2022/05/17 00:46:44;;;;;;;6.68;3.20;;;;;;;;;;4924354;29;20054;-85
2022/05/17 00:49:12;;;;;;;9.98;3.53;;;;;;;;;;4925706;28;20042;-85
2022/05/17 00:51:39;;;;;;;6.55;3.55;;;;;;;;;;4933971;29;20031;-84
2022/05/17 00:54:13;;;;;;;6.78;3.67;;;;;;;;;;4922793;29;20040;-83
2022/05/17 00:56:43;;;;;;;5.57;3.40;;;;;;;;;;4917281;29;20055;-85
2022/05/17 00:59:10;;;;;;;8.38;3.30;;;;;;;;;;4925605;29;20639;-79
2022/05/17 01:01:37;;;;;;;5.55;3.08;;;;;;;;;;4924962;28;20032;-78
2022/05/17 01:04:14;;;;;;;11.30;3.92;;;;;;;;;;4917308;29;20115;-84
2022/05/17 01:06:42;;;;;;;8.68;3.05;;;;;;;;;;4929032;29;20115;-85
2022/05/17 01:09:08;;;;;;;8.65;3.30;;;;;;;;;;4909714;29;20028;-76
2022/05/17 01:11:35;;;;;;;5.72;3.33;;;;;;;;;;4919186;29;20042;-77
2022/05/17 01:16:46;;;;;;;4.82;3.10;;;;;;;;;;4917047;29;20043;-83
2022/05/17 01:19:12;;;;;;;7.05;2.92;;;;;;;;;;4922784;29;20091;-77
2022/05/17 01:21:39;;;;;;;7.03;3.28;;;;;;;;;;4929628;29;20122;-85
2022/05/17 01:24:05;;;;;;;8.60;3.88;;;;;;;;;;4922504;29;20032;-85
2022/05/17 01:26:33;;;;;;;7.32;3.28;;;;;;;;;;4927012;29;20031;-85
2022/05/17 01:28:59;;;;;;;7.60;3.42;;;;;;;;;;4933359;29;20032;-76
2022/05/17 01:31:27;;;;;;;6.70;3.38;;;;;;;;;;4916719;29;20470;-80
2022/05/17 01:33:53;;;;;;;6.32;3.10;;;;;;;;;;4918709;29;20090;-80
2022/05/17 01:36:22;;;;;;;6.28;3.40;;;;;;;;;;4927284;29;20028;-85
2022/05/17 01:38:52;;;;;;;10.60;3.40;;;;;;;;;;4903614;29;20507;-85
2022/05/17 01:41:19;;;;;;;9.77;3.63;;;;;;;;;;4922268;29;20121;-77
2022/05/17 01:43:45;;;;;;;5.28;3.20;;;;;;;;;;4928579;29;20024;-83
2022/05/17 01:46:11;;;;;;;6.10;2.97;;;;;;;;;;4918093;29;20399;-83
2022/05/17 01:48:39;;;;;;;7.60;3.30;;;;;;;;;;4928771;29;20115;-84
2022/05/17 01:51:06;;;;;;;6.50;3.20;;;;;;;;;;4928152;29;20051;-85
2022/05/17 01:53:35;;;;;;;6.03;3.35;;;;;;;;;;4909734;29;20378;-84
2022/05/17 01:56:01;;;;;;;10.43;3.45;;;;;;;;;;4931578;29;20158;-83
2022/05/17 01:58:28;;;;;;;6.03;3.20;;;;;;;;;;4924151;29;20427;-77
2022/05/17 02:00:58;;;;;;;9.15;3.65;;;;;;;;;;4930811;29;20401;-86
2022/05/17 02:03:27;;;;;;;8.45;3.53;;;;;;;;;;4925339;29;20024;-83
2022/05/17 02:05:53;;;;;;;6.50;3.55;;;;;;;;;;4923894;29;20158;-81
2022/05/17 02:08:19;;;;;;;8.32;3.10;;;;;;;;;;4922994;29;20020;-85
2022/05/17 02:10:45;;;;;;;5.75;3.40;;;;;;;;;;4913788;29;20031;-76
2022/05/17 02:13:11;;;;;;;7.05;4.07;;;;;;;;;;4927395;28;20093;-77
2022/05/17 02:15:38;;;;;;;10.02;3.00;;;;;;;;;;4918909;29;20086;-84
2022/05/17 02:18:04;;;;;;;6.05;3.35;;;;;;;;;;4923947;29;20055;-86
2022/05/17 02:20:30;;;;;;;6.13;3.13;;;;;;;;;;4925012;29;20040;-85
2022/05/17 02:22:57;;;;;;;5.45;3.05;;;;;;;;;;4921876;29;20087;-76
2022/05/17 02:25:23;;;;;;;6.85;3.17;;;;;;;;;;4916280;29;20035;-78
2022/05/17 02:27:49;;;;;;;7.78;3.40;;;;;;;;;;4929575;29;20027;-85
2022/05/17 02:30:15;;;;;;;6.57;3.30;;;;;;;;;;4915637;29;20502;-80
2022/05/17 02:32:41;;;;;;;6.28;2.97;;;;;;;;;;4923821;29;20027;-80
2022/05/17 02:35:09;;;;;;;6.65;3.20;;;;;;;;;;4917681;29;20067;-83
2022/05/17 02:37:36;;;;;;;7.22;3.20;;;;;;;;;;4912733;29;20030;-82
2022/05/17 02:40:02;;;;;;;4.70;3.03;;;;;;;;;;4914153;29;20040;-82
2022/05/17 02:42:28;;;;;;;7.15;3.90;;;;;;;;;;4922309;29;20154;-80
2022/05/17 02:44:54;;;;;;;8.57;3.72;;;;;;;;;;4921618;29;20153;-82
2022/05/17 02:47:20;;;;;;;6.03;3.55;;;;;;;;;;4908283;29;20494;-83
2022/05/17 02:49:46;;;;;;;8.63;3.45;;;;;;;;;;4934380;29;20039;-79
2022/05/17 02:52:13;;;;;;;7.22;3.00;;;;;;;;;;4917660;29;20478;-85
2022/05/17 02:54:39;;;;;;;8.05;3.67;;;;;;;;;;4924106;29;20032;-83
2022/05/17 02:57:06;;;;;;;6.22;3.20;;;;;;;;;;4935118;29;20453;-76
2022/05/17 02:59:32;;;;;;;10.63;3.40;;;;;;;;;;4913614;29;20414;-84
2022/05/17 03:01:59;;;;;;;5.65;3.30;;;;;;;;;;4918656;29;20465;-82
2022/05/17 03:04:26;;;;;;;6.40;3.55;;;;;;;;;;4927656;29;20030;-81
2022/05/17 03:06:53;;;;;;;6.60;3.05;;;;;;;;;;4929234;29;20771;-76
2022/05/17 03:09:19;;;;;;;10.55;3.95;;;;;;;;;;4931771;29;20055;-84
2022/05/17 03:11:45;;;;;;;6.57;3.42;;;;;;;;;;4916877;29;20024;-76
2022/05/17 03:14:12;;;;;;;7.15;3.50;;;;;;;;;;4925170;29;20040;-76
2022/05/17 03:16:39;;;;;;;9.65;3.90;;;;;;;;;;4917047;29;20448;-78
2022/05/17 03:19:05;;;;;;;9.50;3.67;;;;;;;;;;4917400;29;20398;-81
2022/05/17 03:21:32;;;;;;;6.53;3.30;;;;;;;;;;4924767;29;20032;-78
2022/05/17 03:23:58;;;;;;;10.40;3.95;;;;;;;;;;4915527;29;20083;-78
2022/05/17 03:26:24;;;;;;;6.72;3.53;;;;;;;;;;4925474;29;20567;-83
2022/05/17 03:28:50;;;;;;;6.30;3.42;;;;;;;;;;4926852;29;20480;-84
2022/05/17 03:31:16;;;;;;;7.53;3.40;;;;;;;;;;4899883;29;20127;-84
2022/05/17 03:33:43;;;;;;;6.43;3.50;;;;;;;;;;4924296;29;20051;-80
2022/05/17 03:36:13;;;;;;;11.15;3.72;;;;;;;;;;4899245;29;20115;-83
2022/05/17 03:38:39;;;;;;;8.45;3.72;;;;;;;;;;4928681;29;20576;-83
2022/05/17 03:41:05;;;;;;;8.45;3.75;;;;;;;;;;4904470;29;20060;-80
2022/05/17 03:43:31;;;;;;;6.03;3.50;;;;;;;;;;4923450;29;20036;-78
2022/05/17 03:45:58;;;;;;;8.55;3.60;;;;;;;;;;4922228;29;20052;-84
2022/05/17 03:48:25;;;;;;;9.52;4.00;;;;;;;;;;4901901;29;20029;-82
2022/05/17 03:50:52;;;;;;;11.30;3.78;;;;;;;;;;4903232;29;20099;-83
2022/05/17 03:53:18;;;;;;;11.27;4.15;;;;;;;;;;4902813;29;20054;-78
2022/05/17 03:55:44;;;;;;;7.32;3.80;;;;;;;;;;4905386;29;20032;-83
2022/05/17 03:58:10;;;;;;;9.50;4.20;;;;;;;;;;4900288;29;20038;-81
2022/05/17 04:00:37;;;;;;;11.30;4.53;;;;;;;;;;4915610;29;20079;-79
2022/05/17 04:03:03;;;;;;;10.38;3.78;;;;;;;;;;4904919;29;20487;-82
2022/05/17 04:05:29;;;;;;;10.73;3.58;;;;;;;;;;4903619;29;20039;-79
2022/05/17 04:07:56;;;;;;;10.57;3.95;;;;;;;;;;4916383;29;20020;-83
2022/05/17 04:10:23;;;;;;;11.73;3.95;;;;;;;;;;4911455;29;20546;-78
2022/05/17 04:12:49;;;;;;;12.77;4.07;;;;;;;;;;4916109;29;20028;-79
2022/05/17 04:15:16;;;;;;;9.63;3.70;;;;;;;;;;4886516;29;20209;-84
2022/05/17 04:17:43;;;;;;;13.15;4.40;;;;;;;;;;4890048;29;20398;-79
2022/05/17 04:20:12;;;;;;;8.27;4.45;;;;;;;;;;4907866;29;20454;-85
2022/05/17 04:22:43;;;;;;;9.80;4.22;;;;;;;;;;4893560;29;20059;-78
2022/05/17 04:25:09;;;;;;;9.57;4.82;;;;;;;;;;4911263;29;20533;-85
2022/05/17 04:27:35;;;;;;;15.07;5.50;;;;;;;;;;4913407;29;20084;-77
2022/05/17 04:30:01;;;;;;;12.95;5.25;;;;;;;;;;4891495;29;20087;-84
2022/05/17 04:32:27;;;;;;;13.10;5.15;;;;;;;;;;4916191;29;20059;-84
2022/05/17 04:34:54;;;;;;;12.05;4.90;;;;;;;;;;4915647;29;20036;-78
2022/05/17 04:37:20;;;;;;;12.77;4.70;;;;;;;;;;4887944;29;20024;-83
2022/05/17 04:39:46;;;;;;;13.90;5.40;;;;;;;;;;4915080;29;20073;-76
2022/05/17 04:42:12;;;;;;;10.15;5.15;;;;;;;;;;4910795;29;20025;-80
2022/05/17 04:44:38;;;;;;;16.30;5.85;;;;;;;;;;4902651;29;20107;-82
2022/05/17 04:47:04;;;;;;;14.70;5.63;;;;;;;;;;4923571;29;20119;-80
2022/05/17 04:49:31;;;;;;;12.63;5.30;;;;;;;;;;4912424;29;20036;-80
2022/05/17 04:51:57;;;;;;;11.57;5.88;;;;;;;;;;4910359;29;20051;-82
2022/05/17 04:54:25;;;;;;;19.35;6.57;;;;;;;;;;4931101;29;20028;-75
2022/05/17 04:56:54;;;;;;;14.07;5.13;;;;;;;;;;4926301;29;20027;-83
2022/05/17 04:59:20;;;;;;;10.75;5.50;;;;;;;;;;4921117;29;20099;-80
2022/05/17 05:01:47;;;;;;;17.48;5.82;;;;;;;;;;4917312;29;20067;-73
2022/05/17 05:04:13;;;;;;;14.90;5.63;;;;;;;;;;4917706;29;20103;-76
2022/05/17 05:06:39;;;;;;;9.55;5.40;;;;;;;;;;4918234;29;20044;-77
2022/05/17 05:09:05;;;;;;;14.88;5.53;;;;;;;;;;4921231;29;20028;-80
2022/05/17 05:11:31;;;;;;;8.82;5.43;;;;;;;;;;4924039;29;20039;-77
2022/05/17 05:13:57;;;;;;;12.73;5.90;;;;;;;;;;4928147;29;20032;-81
2022/05/17 05:16:23;;;;;;;14.60;6.22;;;;;;;;;;4920092;29;20047;-80
2022/05/17 05:18:51;;;;;;;13.15;6.00;;;;;;;;;;4918276;29;20422;-80
2022/05/17 05:21:17;;;;;;;14.55;7.07;;;;;;;;;;4931633;29;20040;-81
2022/05/17 05:23:44;;;;;;;15.50;6.43;;;;;;;;;;4925440;29;20019;-80
2022/05/17 05:26:12;;;;;;;11.63;5.82;;;;;;;;;;4921709;29;20507;-80
2022/05/17 05:28:39;;;;;;;12.70;6.18;;;;;;;;;;4926400;29;20035;-79
2022/05/17 05:31:05;;;;;;;14.25;6.72;;;;;;;;;;4920259;29;20031;-80
2022/05/17 05:33:33;;;;;;;14.18;7.25;;;;;;;;;;4927381;29;20500;-77
2022/05/17 05:35:59;;;;;;;16.15;6.78;;;;;;;;;;4929799;29;20042;-73
2022/05/17 05:38:25;;;;;;;17.88;6.80;;;;;;;;;;4920979;29;20099;-78
2022/05/17 05:40:54;;;;;;;16.58;6.90;;;;;;;;;;4920871;29;20040;-74
2022/05/17 05:43:20;;;;;;;16.33;7.13;;;;;;;;;;4926468;29;20166;-81
2022/05/17 05:45:46;;;;;;;14.93;7.20;;;;;;;;;;4923848;29;20044;-75
2022/05/17 05:48:12;;;;;;;17.20;7.93;;;;;;;;;;4921499;29;20028;-84
2022/05/17 05:50:38;;;;;;;14.07;7.82;;;;;;;;;;4911467;29;20459;-84
2022/05/17 05:53:06;;;;;;;14.43;7.55;;;;;;;;;;4918399;29;20043;-79
2022/05/17 05:55:32;;;;;;;15.82;8.13;;;;;;;;;;4917642;29;20107;-78
2022/05/17 05:57:59;;;;;;;15.43;7.85;;;;;;;;;;4924365;29;20107;-85
2022/05/17 06:00:25;;;;;;;16.95;7.85;;;;;;;;;;4927345;29;20466;-78
2022/05/17 06:02:52;;;;;;;13.80;8.10;;;;;;;;;;4915868;29;20434;-83
2022/05/17 06:05:19;;;;;;;11.57;8.10;;;;;;;;;;4916519;29;20111;-84
2022/05/17 06:07:45;;;;;;;12.82;8.23;;;;;;;;;;4917762;29;20115;-81
2022/05/17 06:10:15;;;;;;;17.38;8.40;;;;;;;;;;4924894;29;20040;-84
2022/05/17 06:12:43;;;;;;;16.60;8.25;;;;;;;;;;4923964;29;20067;-84
2022/05/17 06:15:10;;;;;;;10.55;8.70;;;;;;;;;;4905502;29;20087;-77
2022/05/17 06:17:37;;;;;;;20.40;9.00;;;;;;;;;;4914850;29;20051;-74
2022/05/17 06:20:04;;;;;;;18.80;8.27;;;;;;;;;;4928996;29;20091;-77
2022/05/17 06:22:30;;;;;;;13.15;8.07;;;;;;;;;;4918917;29;20474;-77
2022/05/17 06:24:56;;;;;;;13.85;8.82;;;;;;;;;;4922817;29;20039;-77
2022/05/17 06:27:22;;;;;;;13.23;8.02;;;;;;;;;;4926962;29;20052;-75
2022/05/17 06:29:48;;;;;;;12.63;8.77;;;;;;;;;;4926608;29;20036;-75
2022/05/17 06:32:17;;;;;;;13.00;8.75;;;;;;;;;;4923248;29;20036;-82
2022/05/17 06:34:45;;;;;;;13.57;8.77;;;;;;;;;;4903279;29;20039;-77
2022/05/17 06:37:11;;;;;;;13.63;8.52;;;;;;;;;;4915566;29;20043;-85
2022/05/17 06:39:38;;;;;;;13.38;8.48;;;;;;;;;;4912248;29;20123;-85
2022/05/17 06:42:10;;;;;;;16.88;8.88;;;;;;;;;;4908886;29;20020;-85
2022/05/17 06:44:37;;;;;;;12.32;8.75;;;;;;;;;;4936041;29;20032;-84
2022/05/17 06:47:04;;;;;;;20.10;9.70;;;;;;;;;;4903834;29;20048;-84
2022/05/17 06:49:30;;;;;;;16.17;9.32;;;;;;;;;;4904237;29;20020;-83
2022/05/17 06:51:57;;;;;;;13.13;8.95;;;;;;;;;;4910057;29;20035;-85
2022/05/17 06:54:24;;;;;;;19.27;8.95;;;;;;;;;;4908532;29;20038;-88
2022/05/17 06:56:51;;;;;;;14.88;9.00;;;;;;;;;;4892741;29;20937;-76
2022/05/17 06:59:18;;;;;;;21.10;9.35;;;;;;;;;;4902931;29;20115;-80
2022/05/17 07:01:44;;;;;;;16.00;9.23;;;;;;;;;;4902113;29;20075;-83
2022/05/17 07:04:12;;;;;;;16.00;9.93;;;;;;;;;;4900988;29;20033;-86
2022/05/17 07:06:38;;;;;;;19.10;9.60;;;;;;;;;;4908425;29;20521;-78
2022/05/17 07:21:57;;;;;;;20.75;9.10;;;;;;;;;;5120290;27;20830;-77
2022/05/17 07:24:23;;;;;;;15.18;9.07;;;;;;;;;;5106183;28;20053;-79
2022/05/17 07:26:50;;;;;;;15.13;8.70;;;;;;;;;;5103522;28;20028;-78
2022/05/17 07:29:16;;;;;;;18.60;9.20;;;;;;;;;;5110225;28;20492;-77
2022/05/17 07:31:42;;;;;;;14.77;8.88;;;;;;;;;;5105793;27;20107;-77
2022/05/17 07:34:08;;;;;;;15.95;9.02;;;;;;;;;;5108421;28;20020;-83
2022/05/17 07:36:34;;;;;;;16.20;9.00;;;;;;;;;;5104835;27;20105;-77
2022/05/17 07:39:00;;;;;;;11.38;8.63;;;;;;;;;;5107078;28;20028;-78
2022/05/17 07:41:26;;;;;;;14.15;8.68;;;;;;;;;;5112656;27;20024;-76
2022/05/17 07:43:52;;;;;;;17.63;9.43;;;;;;;;;;5100219;28;20139;-77
2022/05/17 07:46:18;;;;;;;20.95;9.52;;;;;;;;;;5111768;28;20023;-75
2022/05/17 07:48:44;;;;;;;16.10;8.15;;;;;;;;;;5109417;27;20019;-75
2022/05/17 07:51:11;;;;;;;16.70;8.60;;;;;;;;;;5108984;28;20035;-75
2022/05/17 07:53:37;;;;;;;17.92;8.82;;;;;;;;;;5107172;28;20020;-76
2022/05/17 07:56:04;;;;;;;15.85;8.00;;;;;;;;;;5102470;28;20028;-77
2022/05/17 07:58:30;;;;;;;17.42;8.35;;;;;;;;;;5113484;28;20049;-81
2022/05/17 08:00:56;;;;;;;29.65;9.73;;;;;;;;;;5103871;27;20042;-78
2022/05/17 08:03:22;;;;;;;24.10;10.02;;;;;;;;;;5123531;27;20048;-78
2022/05/17 08:05:49;;;;;;;46.72;11.13;;;;;;;;;;5107110;27;20053;-79
2022/05/17 08:08:15;;;;;;;16.60;8.85;;;;;;;;;;5110876;28;20103;-79
2022/05/17 08:10:41;;;;;;;12.70;7.80;;;;;;;;;;5110628;27;20419;-78
2022/05/17 08:13:07;;;;;;;12.32;7.80;;;;;;;;;;5105306;28;20028;-77
2022/05/17 08:15:33;;;;;;;32.22;8.77;;;;;;;;;;5096593;28;20023;-80
2022/05/17 08:18:01;;;;;;;17.48;8.13;;;;;;;;;;5102199;28;20424;-82
2022/05/17 08:20:27;;;;;;;14.43;8.05;;;;;;;;;;5099079;28;20040;-79
2022/05/17 08:22:54;;;;;;;17.80;7.90;;;;;;;;;;5084714;28;20040;-77
2022/05/17 08:28:06;;;;;;;16.35;7.85;;;;;;;;;;5082140;28;20035;-77
2022/05/17 08:30:33;;;;;;;14.85;8.10;;;;;;;;;;5093329;28;20358;-77
2022/05/17 08:33:16;;;;;;;16.35;7.93;;;;;;;;;;5078086;28;20109;-76
2022/05/17 08:36:00;;;;;;;23.63;7.88;;;;;;;;;;5076838;28;20125;-79
2022/05/17 08:38:27;;;;;;;12.23;7.43;;;;;;;;;;5080167;28;20397;-79
2022/05/17 08:40:56;;;;;;;18.90;8.15;;;;;;;;;;5087206;28;20024;-78
2022/05/17 08:43:23;;;;;;;22.40;8.10;;;;;;;;;;5090573;28;20108;-79
2022/05/17 08:45:51;;;;;;;13.98;7.22;;;;;;;;;;5078082;28;20057;-77
2022/05/17 08:48:18;;;;;;;15.25;6.80;;;;;;;;;;5088762;28;20028;-78
2022/05/17 08:50:46;;;;;;;10.07;6.95;;;;;;;;;;5091068;28;20032;-78
2022/05/17 08:53:15;;;;;;;9.65;6.80;;;;;;;;;;5082410;28;20081;-78
2022/05/17 08:55:42;;;;;;;16.75;7.20;;;;;;;;;;5084903;28;20029;-77
2022/05/17 08:58:13;;;;;;;13.95;6.95;;;;;;;;;;5085927;28;20020;-81
2022/05/17 09:00:41;;;;;;;15.43;7.28;;;;;;;;;;5084612;28;20024;-80
2022/05/17 09:03:22;;;;;;;12.15;7.20;;;;;;;;;;5083530;28;20020;-82
2022/05/17 09:05:54;;;;;;;11.95;7.07;;;;;;;;;;5077079;28;20039;-82
2022/05/17 09:08:28;;;;;;;15.57;7.60;;;;;;;;;;5088885;28;20040;-77
2022/05/17 09:11:21;;;;;;;16.40;7.82;;;;;;;;;;5091648;28;20040;-83
2022/05/17 09:14:06;;;;;;;15.73;7.97;;;;;;;;;;5090365;28;20394;-79
2022/05/17 09:16:35;;;;;;;18.85;8.10;;;;;;;;;;5078556;28;20020;-78
2022/05/17 09:19:01;;;;;;;13.38;7.43;;;;;;;;;;5085309;28;20017;-78
2022/05/17 09:21:29;;;;;;;18.02;7.50;;;;;;;;;;5080308;28;20111;-77
2022/05/17 09:23:57;;;;;;;15.55;9.50;;;;;;;;;;5081120;28;20029;-79
2022/05/17 09:26:23;;;;;;;11.55;8.32;;;;;;;;;;5077286;28;20016;-80
2022/05/17 09:29:01;;;;;;;16.50;8.10;;;;;;;;;;5088683;28;20492;-78
2022/05/17 09:31:29;;;;;;;22.63;9.45;;;;;;;;;;5087649;28;20119;-76
2022/05/17 09:33:57;;;;;;;13.73;7.45;;;;;;;;;;5083100;28;20028;-78
2022/05/17 09:36:25;;;;;;;12.40;6.60;;;;;;;;;;5078757;28;20497;-78
2022/05/17 09:38:52;;;;;;;19.00;7.20;;;;;;;;;;5081182;28;20030;-78
2022/05/17 09:41:22;;;;;;;17.02;7.93;;;;;;;;;;5086383;28;20024;-80
2022/05/17 09:44:05;;;;;;;16.00;8.95;;;;;;;;;;5080277;28;20374;-79
2022/05/17 09:46:34;;;;;;;14.98;8.63;;;;;;;;;;5091034;28;20035;-79
2022/05/17 09:54:37;;;;;;;16.02;7.25;;;;;;;;;;5088047;28;20031;-79
2022/05/17 09:57:19;;;;;;;15.77;7.03;;;;;;;;;;5088629;28;20035;-75
2022/05/17 09:59:46;;;;;;;12.50;6.55;;;;;;;;;;5086748;28;20024;-89
2022/05/17 10:02:32;;;;;;;14.20;7.18;;;;;;;;;;5089892;28;20116;-80
2022/05/17 10:05:01;;;;;;;12.05;6.60;;;;;;;;;;5088606;28;20050;-78
2022/05/17 10:07:30;;;;;;;20.13;10.25;;;;;;;;;;5083957;28;20133;-79
2022/05/17 10:09:56;;;;;;;17.65;7.80;;;;;;;;;;5087916;28;20037;-78
2022/05/17 10:12:33;;;;;;;13.00;8.18;;;;;;;;;;5082500;28;20512;-76
2022/05/17 10:15:03;;;;;;;12.02;7.85;;;;;;;;;;5088519;28;20109;-78
2022/05/17 10:17:41;;;;;;;15.05;7.32;;;;;;;;;;5082094;28;20504;-81
2022/05/17 10:20:07;;;;;;;11.40;6.38;;;;;;;;;;5091662;28;20040;-76
2022/05/17 10:22:36;;;;;;;10.90;6.80;;;;;;;;;;5086991;28;20099;-77
2022/05/17 10:25:02;;;;;;;12.52;6.65;;;;;;;;;;5088365;28;20020;-77
2022/05/17 10:27:34;;;;;;;10.70;5.93;;;;;;;;;;5079016;28;20025;-80
2022/05/17 10:30:03;;;;;;;12.30;6.03;;;;;;;;;;5081748;28;20044;-81
2022/05/17 10:32:33;;;;;;;10.38;6.43;;;;;;;;;;5089781;28;20028;-79
2022/05/17 10:34:59;;;;;;;11.05;6.45;;;;;;;;;;5088737;28;20020;-80
2022/05/17 10:37:31;;;;;;;12.30;7.32;;;;;;;;;;5080594;28;20124;-80
2022/05/17 10:40:00;;;;;;;14.85;7.00;;;;;;;;;;5083680;28;20481;-81
2022/05/17 10:42:28;;;;;;;13.30;5.90;;;;;;;;;;5087650;28;20153;-80
2022/05/17 10:44:55;;;;;;;13.43;8.65;;;;;;;;;;5087057;28;20568;-86
2022/05/17 10:47:28;;;;;;;9.55;5.78;;;;;;;;;;5078412;28;20032;-77
2022/05/17 10:50:00;;;;;;;7.55;4.05;;;;;;;;;;5082034;28;20430;-82
2022/05/17 10:52:26;;;;;;;12.38;4.32;;;;;;;;;;5091423;28;20141;-82
2022/05/17 10:55:12;;;;;;;10.88;5.32;;;;;;;;;;5085477;28;20036;-80
2022/05/17 10:57:44;;;;;;;10.35;4.78;;;;;;;;;;5077103;28;20032;-91
2022/05/17 11:00:18;;;;;;;11.03;4.13;;;;;;;;;;5089485;28;20024;-80
2022/05/17 11:02:44;;;;;;;15.23;4.32;;;;;;;;;;5083486;28;20099;-75
2022/05/17 11:05:22;;;;;;;8.55;4.13;;;;;;;;;;5081868;28;20032;-77
2022/05/17 11:07:48;;;;;;;21.05;4.65;;;;;;;;;;5081422;28;20112;-78
2022/05/17 11:10:21;;;;;;;7.78;3.85;;;;;;;;;;5082015;28;20059;-81
2022/05/17 11:12:50;;;;;;;11.32;4.57;;;;;;;;;;5081598;28;20028;-83
2022/05/17 11:15:25;;;;;;;8.05;4.20;;;;;;;;;;5088263;28;20038;-77
2022/05/17 11:17:55;;;;;;;15.02;4.05;;;;;;;;;;5079685;28;20027;-76
2022/05/17 11:20:30;;;;;;;17.02;4.50;;;;;;;;;;5081322;28;20143;-74
2022/05/17 11:22:59;;;;;;;8.20;3.58;;;;;;;;;;5077964;28;20436;-74
2022/05/17 11:25:25;;;;;;;9.50;4.10;;;;;;;;;;5076074;28;20029;-74
2022/05/17 11:27:54;;;;;;;6.10;3.80;;;;;;;;;;5081848;28;20482;-74
2022/05/17 11:30:20;;;;;;;27.70;4.20;;;;;;;;;;5081510;28;20040;-73
2022/05/17 11:33:05;;;;;;;6.40;3.75;;;;;;;;;;5082373;28;20124;-73
2022/05/17 11:35:31;;;;;;;10.88;3.80;;;;;;;;;;5074269;28;20494;-74
2022/05/17 11:37:59;;;;;;;71.95;7.43;;;;;;;;;;5078313;28;20098;-77
2022/05/17 11:40:56;;;;;;;12.05;3.65;;;;;;;;;;5082142;28;20389;-76
2022/05/17 11:43:40;;;;;;;10.00;3.10;;;;;;;;;;5083770;28;20439;-82
2022/05/17 11:46:26;;;;;;;5.43;3.45;;;;;;;;;;5066784;28;20074;-74
2022/05/17 11:48:55;;;;;;;9.57;3.53;;;;;;;;;;5087278;28;20024;-78
2022/05/17 11:51:25;;;;;;;21.73;4.90;;;;;;;;;;5078887;28;20539;-80
2022/05/17 11:53:53;;;;;;;8.75;3.50;;;;;;;;;;5088381;28;20032;-81
2022/05/17 11:56:32;;;;;;;7.30;3.70;;;;;;;;;;5086515;28;20082;-75
2022/05/17 11:58:58;;;;;;;10.15;4.40;;;;;;;;;;5090553;28;20103;-76
2022/05/17 12:01:28;;;;;;;12.27;4.05;;;;;;;;;;5069925;28;20909;-78
2022/05/17 12:04:00;;;;;;;9.90;4.10;;;;;;;;;;5082630;28;20040;-81
2022/05/17 12:06:33;;;;;;;7.65;3.65;;;;;;;;;;5087562;28;20036;-82
2022/05/17 12:08:59;;;;;;;10.45;3.63;;;;;;;;;;5084899;28;20028;-79
2022/05/17 12:11:28;;;;;;;11.13;4.32;;;;;;;;;;5086750;28;20048;-93
2022/05/17 12:14:13;;;;;;;9.43;4.63;;;;;;;;;;5094235;28;20044;-88
2022/05/17 12:16:45;;;;;;;6.72;4.15;;;;;;;;;;5086283;28;20054;-83
2022/05/17 12:19:20;;;;;;;9.83;3.67;;;;;;;;;;5073493;28;20529;-82
2022/05/17 12:22:00;;;;;;;9.70;3.53;;;;;;;;;;5087994;28;20059;-79
2022/05/17 12:24:26;;;;;;;10.10;4.03;;;;;;;;;;5090165;28;20052;-77
2022/05/17 12:27:01;;;;;;;10.23;3.95;;;;;;;;;;5081710;28;20152;-80
2022/05/17 12:32:19;;;;;;;6.10;3.60;;;;;;;;;;5085044;28;20059;-80
2022/05/17 12:34:50;;;;;;;22.85;4.03;;;;;;;;;;5089288;28;20095;-82
2022/05/17 12:37:17;;;;;;;7.60;3.60;;;;;;;;;;5091942;28;20406;-80
2022/05/17 12:45:23;;;;;;;11.07;3.90;;;;;;;;;;5089761;28;20072;-82
2022/05/17 12:47:51;;;;;;;6.50;3.72;;;;;;;;;;5083166;28;20013;-78
2022/05/17 12:50:19;;;;;;;9.10;3.95;;;;;;;;;;5085931;28;20397;-78
2022/05/17 12:52:46;;;;;;;6.72;3.90;;;;;;;;;;5084553;28;20035;-80
2022/05/17 12:55:20;;;;;;;7.82;3.95;;;;;;;;;;5090444;28;20028;-84
2022/05/17 12:57:47;;;;;;;22.02;4.35;;;;;;;;;;5086071;28;20025;-79
2022/05/17 13:00:13;;;;;;;13.52;3.92;;;;;;;;;;5075623;28;20025;-79
2022/05/17 13:02:47;;;;;;;8.93;4.00;;;;;;;;;;5080413;28;20157;-81
2022/05/17 13:05:23;;;;;;;19.33;4.82;;;;;;;;;;5081610;28;20024;-74
2022/05/17 13:07:58;;;;;;;7.00;3.83;;;;;;;;;;5085689;28;20047;-80
2022/05/17 13:10:25;;;;;;;12.63;3.83;;;;;;;;;;5086229;28;20043;-76
2022/05/17 13:12:51;;;;;;;8.75;3.80;;;;;;;;;;5085362;28;20107;-78
2022/05/17 13:15:17;;;;;;;10.60;4.00;;;;;;;;;;5083371;28;20028;-75
2022/05/17 13:17:43;;;;;;;11.00;3.88;;;;;;;;;;5087340;28;20074;-83
2022/05/17 13:20:10;;;;;;;8.32;4.10;;;;;;;;;;5088407;28;20051;-81
2022/05/17 13:22:39;;;;;;;8.23;3.85;;;;;;;;;;5087302;28;20085;-76
2022/05/17 13:25:09;;;;;;;8.65;4.00;;;;;;;;;;5086283;28;20028;-82
2022/05/17 13:27:42;;;;;;;6.85;3.95;;;;;;;;;;5087034;28;20016;-75
2022/05/17 13:30:21;;;;;;;8.95;4.10;;;;;;;;;;5082410;28;20032;-83
2022/05/17 13:32:49;;;;;;;9.95;4.07;;;;;;;;;;5081971;28;20102;-73
2022/05/17 13:35:20;;;;;;;6.22;3.70;;;;;;;;;;5084373;28;20035;-76
2022/05/17 13:37:53;;;;;;;7.75;4.03;;;;;;;;;;5088772;28;20032;-84
2022/05/17 13:40:34;;;;;;;6.68;3.80;;;;;;;;;;5083945;28;20031;-76
2022/05/17 13:43:00;;;;;;;5.25;3.80;;;;;;;;;;5082101;28;20098;-86
2022/05/17 13:45:30;;;;;;;10.07;3.90;;;;;;;;;;5092535;28;20392;-81
2022/05/17 13:47:56;;;;;;;7.90;3.90;;;;;;;;;;5090399;28;20073;-86
2022/05/17 13:50:26;;;;;;;10.57;3.95;;;;;;;;;;5083121;28;20032;-76
2022/05/17 13:52:56;;;;;;;6.70;3.67;;;;;;;;;;5086687;28;20416;-77
2022/05/17 13:55:35;;;;;;;14.95;4.32;;;;;;;;;;5081991;28;20043;-76
2022/05/17 13:58:07;;;;;;;8.88;3.92;;;;;;;;;;5079288;28;20033;-77
2022/05/17 14:00:38;;;;;;;8.93;3.70;;;;;;;;;;5087000;28;20032;-77
2022/05/17 14:03:16;;;;;;;7.55;3.95;;;;;;;;;;5084346;28;20024;-78
2022/05/17 14:05:51;;;;;;;8.32;3.75;;;;;;;;;;5084021;28;20032;-77
2022/05/17 14:13:54;;;;;;;10.10;3.75;;;;;;;;;;5084311;28;20440;-77
2022/05/17 14:16:23;;;;;;;14.27;4.55;;;;;;;;;;5083795;28;20546;-78
2022/05/17 14:18:50;;;;;;;7.75;4.28;;;;;;;;;;5090142;28;20424;-77
2022/05/17 14:21:16;;;;;;;14.50;4.40;;;;;;;;;;5083639;28;20136;-78
2022/05/17 14:23:43;;;;;;;10.68;4.40;;;;;;;;;;5090097;28;20031;-78
2022/05/17 14:26:11;;;;;;;11.85;4.32;;;;;;;;;;5086082;28;20474;-77
2022/05/17 14:28:37;;;;;;;12.73;5.55;;;;;;;;;;5078106;28;20028;-79
2022/05/17 14:31:03;;;;;;;10.85;4.20;;;;;;;;;;5087669;28;20501;-79
2022/05/17 14:33:30;;;;;;;10.55;4.18;;;;;;;;;;5082497;28;20052;-75
2022/05/17 14:35:57;;;;;;;7.40;3.97;;;;;;;;;;5085705;28;20035;-77
2022/05/17 14:38:23;;;;;;;9.38;4.10;;;;;;;;;;5084799;28;20043;-80
2022/05/17 14:40:49;;;;;;;10.15;3.95;;;;;;;;;;5084558;28;20066;-78
2022/05/17 14:43:16;;;;;;;9.40;3.88;;;;;;;;;;5080650;28;20044;-77
2022/05/17 14:45:43;;;;;;;9.65;3.60;;;;;;;;;;5089045;28;20031;-78
2022/05/17 14:48:10;;;;;;;16.90;7.50;;;;;;;;;;5089590;28;20485;-76
2022/05/17 14:50:36;;;;;;;11.95;4.85;;;;;;;;;;5083047;28;20036;-75
2022/05/17 14:53:04;;;;;;;11.48;5.70;;;;;;;;;;5075504;28;20050;-76
2022/05/17 14:55:30;;;;;;;15.00;6.20;;;;;;;;;;5089494;28;20459;-78
2022/05/17 14:57:56;;;;;;;9.85;4.07;;;;;;;;;;5085391;28;20586;-76
2022/05/17 15:00:24;;;;;;;7.05;3.63;;;;;;;;;;5083815;28;20043;-77
2022/05/17 15:02:54;;;;;;;10.55;4.22;;;;;;;;;;5080723;28;20480;-76
2022/05/17 15:05:20;;;;;;;5.97;4.00;;;;;;;;;;5088552;28;20488;-82
2022/05/17 15:07:49;;;;;;;7.90;3.78;;;;;;;;;;5085465;28;20050;-76
2022/05/17 15:10:15;;;;;;;6.57;3.72;;;;;;;;;;5088869;28;20477;-76
2022/05/17 15:12:42;;;;;;;12.73;4.70;;;;;;;;;;5077609;28;20101;-77
2022/05/17 15:15:09;;;;;;;22.40;5.10;;;;;;;;;;5080426;28;20031;-77
2022/05/17 15:17:36;;;;;;;8.13;4.43;;;;;;;;;;5082619;28;20041;-81
2022/05/17 15:20:04;;;;;;;7.45;4.47;;;;;;;;;;5084402;28;20047;-85
2022/05/17 15:22:33;;;;;;;8.98;4.00;;;;;;;;;;5082464;28;20039;-83